Time;durP1;ratioP1;P1;durP2;ratioP2;P2;SDS_P1;SDS_P2;PMS_P1;PMS_P2;Temp;Humidity;BMP_temperature;BMP_pressure;BME280_temperature;BME280_humidity;BME280_pressure;Samples;Min_cycle;Max_cycle;Signal;HPM_P1;HPM_P2
2023/12/02 00:01:57;;;;;;;49.47;21.45;;;-1.70;99.90;;;;;;5070494;28;20024;-76
2023/12/02 00:04:23;;;;;;;55.13;21.77;;;-1.70;99.90;;;;;;5069694;28;20418;-77
2023/12/02 00:06:49;;;;;;;57.13;22.17;;;-1.70;99.90;;;;;;5057185;28;20021;-76
2023/12/02 00:09:14;;;;;;;57.28;22.75;;;-1.70;99.90;;;;;;5063477;28;20443;-77
2023/12/02 00:11:40;;;;;;;58.63;25.10;;;-1.70;99.90;;;;;;5070212;28;20085;-77
2023/12/02 00:14:05;;;;;;;62.92;26.10;;;-1.70;99.90;;;;;;5085254;28;20054;-76
2023/12/02 00:16:31;;;;;;;65.85;29.88;;;-1.70;99.90;;;;;;5075941;28;20017;-76
2023/12/02 00:18:57;;;;;;;62.58;26.27;;;-1.70;99.90;;;;;;5090023;28;20024;-77
2023/12/02 00:21:22;;;;;;;59.33;24.38;;;-1.60;99.90;;;;;;5082932;28;20048;-76
2023/12/02 00:23:48;;;;;;;62.30;24.60;;;-1.60;99.90;;;;;;5069275;28;20383;-76
2023/12/02 00:26:14;;;;;;;54.55;22.63;;;-1.60;99.90;;;;;;5063239;28;20043;-77
2023/12/02 00:28:39;;;;;;;57.50;22.75;;;-1.50;99.90;;;;;;5085090;28;20095;-77
2023/12/02 00:31:05;;;;;;;58.25;24.63;;;-1.50;99.90;;;;;;5061931;28;20016;-76
2023/12/02 00:33:31;;;;;;;69.88;25.60;;;-1.50;99.90;;;;;;5064800;28;20024;-76
2023/12/02 00:35:56;;;;;;;64.85;25.67;;;-1.40;99.90;;;;;;5068054;28;20101;-77
2023/12/02 00:38:22;;;;;;;59.20;23.52;;;-1.40;99.90;;;;;;5063368;28;20013;-76
2023/12/02 00:40:48;;;;;;;55.88;22.67;;;-1.30;99.90;;;;;;5065151;28;20467;-77
2023/12/02 00:43:13;;;;;;;56.42;22.52;;;-1.30;99.90;;;;;;5069443;28;20125;-76
2023/12/02 00:45:39;;;;;;;54.95;22.67;;;-1.30;99.90;;;;;;5083940;28;20518;-76
2023/12/02 00:48:05;;;;;;;59.60;22.38;;;-1.30;99.90;;;;;;5081063;28;20024;-77
2023/12/02 00:50:30;;;;;;;58.85;23.13;;;-1.30;99.90;;;;;;5071869;28;20027;-76
2023/12/02 00:52:56;;;;;;;62.17;22.90;;;-1.20;99.90;;;;;;5074162;28;20029;-76
2023/12/02 00:55:22;;;;;;;59.33;22.42;;;-1.20;99.90;;;;;;5064189;28;20013;-76
2023/12/02 00:57:48;;;;;;;62.90;23.48;;;-1.10;99.90;;;;;;5078339;28;20097;-76
2023/12/02 01:00:15;;;;;;;54.65;23.38;;;-1.10;99.90;;;;;;5072555;28;20645;-76
2023/12/02 01:02:41;;;;;;;58.70;24.45;;;-1.10;99.90;;;;;;5059114;28;20031;-76
2023/12/02 01:05:07;;;;;;;62.22;26.08;;;-1.00;99.90;;;;;;5074955;28;20044;-76
2023/12/02 01:07:33;;;;;;;60.03;23.77;;;-1.00;99.90;;;;;;5067248;28;20128;-77
2023/12/02 01:09:58;;;;;;;58.05;23.10;;;-1.00;99.90;;;;;;5059915;28;20436;-76
2023/12/02 01:12:24;;;;;;;61.25;23.23;;;-1.00;99.90;;;;;;5063997;28;20542;-76
2023/12/02 01:14:49;;;;;;;63.20;22.90;;;-0.90;99.90;;;;;;5075627;28;20024;-76
2023/12/02 01:17:16;;;;;;;59.50;23.10;;;-0.90;99.90;;;;;;5091344;28;20354;-76
2023/12/02 01:19:43;;;;;;;53.25;20.75;;;-0.90;99.90;;;;;;5071141;28;20045;-77
2023/12/02 01:22:08;;;;;;;60.20;22.40;;;-0.80;99.90;;;;;;5077834;28;20082;-77
2023/12/02 01:24:34;;;;;;;62.13;23.08;;;-0.80;99.90;;;;;;5074699;28;20033;-76
2023/12/02 01:26:59;;;;;;;57.13;21.02;;;-0.80;99.90;;;;;;5072968;28;20095;-77
2023/12/02 01:29:25;;;;;;;54.42;21.70;;;-0.70;99.90;;;;;;5074587;28;20025;-76
2023/12/02 01:31:50;;;;;;;55.28;21.45;;;-0.70;99.90;;;;;;5075390;28;20075;-76
2023/12/02 01:34:17;;;;;;;55.88;21.77;;;-0.70;99.90;;;;;;5062774;28;20041;-76
2023/12/02 01:36:43;;;;;;;56.72;21.02;;;-0.60;99.90;;;;;;5064101;28;20056;-76
2023/12/02 01:39:10;;;;;;;58.88;22.25;;;-0.60;99.90;;;;;;5058648;28;20048;-77
2023/12/02 01:41:35;;;;;;;57.38;21.45;;;-0.60;99.90;;;;;;5080058;28;20054;-76
2023/12/02 01:44:01;;;;;;;61.33;22.10;;;-0.50;99.90;;;;;;5072086;28;20056;-76
2023/12/02 01:46:26;;;;;;;59.60;22.08;;;-0.50;99.90;;;;;;5082394;28;20107;-76
2023/12/02 01:48:53;;;;;;;56.22;21.35;;;-0.50;99.90;;;;;;5088860;28;20136;-76
2023/12/02 01:51:18;;;;;;;52.58;21.02;;;-0.50;99.90;;;;;;5075689;28;20039;-76
2023/12/02 01:53:44;;;;;;;53.72;20.63;;;-0.50;99.90;;;;;;5080338;28;20091;-76
2023/12/02 01:56:11;;;;;;;53.85;21.08;;;-0.50;99.90;;;;;;5080137;28;20020;-76
2023/12/02 01:58:37;;;;;;;54.70;21.77;;;-0.50;99.90;;;;;;5067955;28;20021;-76
2023/12/02 02:01:04;;;;;;;52.58;19.50;;;-0.50;99.90;;;;;;5067216;28;20020;-76
2023/12/02 02:03:31;;;;;;;50.80;20.40;;;-0.40;99.90;;;;;;5072694;28;20028;-76
2023/12/02 02:05:56;;;;;;;56.00;21.95;;;-0.40;99.90;;;;;;5066068;28;20442;-76
2023/12/02 02:08:22;;;;;;;58.58;22.02;;;-0.40;99.90;;;;;;5064889;28;20020;-76
2023/12/02 02:10:55;;;;;;;54.10;20.80;;;-0.40;99.90;;;;;;5074170;28;20050;-77
2023/12/02 02:13:20;;;;;;;56.80;22.33;;;-0.40;99.90;;;;;;5082267;28;20044;-76
2023/12/02 02:15:46;;;;;;;53.00;20.25;;;-0.40;99.90;;;;;;5073057;28;20028;-77
2023/12/02 02:18:12;;;;;;;53.97;21.77;;;-0.40;99.90;;;;;;5071338;28;20615;-76
2023/12/02 02:20:37;;;;;;;59.90;22.23;;;-0.40;99.90;;;;;;5077949;28;20032;-76
2023/12/02 02:23:04;;;;;;;56.28;21.38;;;-0.40;99.90;;;;;;5080428;28;20032;-76
2023/12/02 02:25:30;;;;;;;57.67;21.25;;;-0.40;99.90;;;;;;5071042;28;20027;-76
2023/12/02 02:27:55;;;;;;;53.58;21.00;;;-0.40;99.90;;;;;;5076158;28;20029;-76
2023/12/02 02:30:24;;;;;;;62.20;22.95;;;-0.40;99.90;;;;;;5074549;28;20013;-76
2023/12/02 02:32:49;;;;;;;54.15;21.08;;;-0.40;99.90;;;;;;5086294;28;20124;-76
2023/12/02 02:35:15;;;;;;;59.60;22.88;;;-0.40;99.90;;;;;;5074677;28;20096;-76
2023/12/02 02:37:41;;;;;;;55.28;21.13;;;-0.40;99.90;;;;;;5072257;28;20020;-76
2023/12/02 02:40:07;;;;;;;58.67;20.85;;;-0.40;99.90;;;;;;5084419;28;20024;-77
2023/12/02 02:42:33;;;;;;;59.22;22.50;;;-0.40;99.90;;;;;;5084863;28;20016;-76
2023/12/02 02:44:58;;;;;;;61.53;22.70;;;-0.40;99.90;;;;;;5068880;28;20380;-76
2023/12/02 02:47:24;;;;;;;55.30;20.40;;;-0.40;99.90;;;;;;5080654;28;20027;-76
2023/12/02 02:49:49;;;;;;;56.95;22.27;;;-0.40;99.90;;;;;;5082077;28;20021;-76
2023/12/02 02:52:15;;;;;;;60.22;21.75;;;-0.40;99.90;;;;;;5078799;28;20065;-76
2023/12/02 02:54:40;;;;;;;59.83;21.70;;;-0.40;99.90;;;;;;5071688;28;20016;-76
2023/12/02 02:57:06;;;;;;;59.55;23.25;;;-0.40;99.90;;;;;;5079966;28;20033;-76
2023/12/02 02:59:31;;;;;;;56.25;22.33;;;-0.40;99.90;;;;;;5064980;28;20539;-76
2023/12/02 03:01:57;;;;;;;56.90;20.98;;;-0.40;99.90;;;;;;5077547;28;20032;-76
2023/12/02 03:04:23;;;;;;;52.47;21.17;;;-0.40;99.90;;;;;;5069996;28;20064;-76
2023/12/02 03:06:49;;;;;;;60.22;21.33;;;-0.40;99.90;;;;;;5065529;28;20500;-76
2023/12/02 03:09:14;;;;;;;56.00;21.65;;;-0.50;99.90;;;;;;5073775;28;20032;-76
2023/12/02 03:11:40;;;;;;;55.47;20.98;;;-0.50;99.90;;;;;;5058146;28;20043;-76
2023/12/02 03:14:06;;;;;;;52.75;21.98;;;-0.40;99.90;;;;;;5053462;28;20049;-76
2023/12/02 03:16:31;;;;;;;49.97;20.85;;;-0.50;99.90;;;;;;5060008;28;20021;-76
2023/12/02 03:18:57;;;;;;;56.50;21.23;;;-0.50;99.90;;;;;;5070357;28;20032;-76
2023/12/02 03:21:23;;;;;;;53.47;21.30;;;-0.50;99.90;;;;;;5069621;28;20239;-76
2023/12/02 03:23:49;;;;;;;59.95;22.33;;;-0.50;99.90;;;;;;5069484;28;20115;-76
2023/12/02 03:26:15;;;;;;;55.78;22.23;;;-0.60;99.90;;;;;;5067356;28;20032;-76
2023/12/02 03:28:42;;;;;;;56.90;21.20;;;-0.60;99.90;;;;;;5069388;28;20086;-76
2023/12/02 03:31:09;;;;;;;51.65;21.40;;;-0.60;99.90;;;;;;5080318;28;20107;-76
2023/12/02 03:33:34;;;;;;;54.28;20.40;;;-0.60;99.90;;;;;;5079345;28;20028;-76
2023/12/02 03:36:01;;;;;;;57.35;22.70;;;-0.60;99.90;;;;;;5078726;28;20031;-76
2023/12/02 03:38:26;;;;;;;57.15;21.25;;;-0.60;99.90;;;;;;5072964;28;20164;-76
2023/12/02 03:40:52;;;;;;;57.35;21.73;;;-0.70;99.90;;;;;;5069349;28;20537;-76
2023/12/02 03:43:18;;;;;;;54.00;20.35;;;-0.70;99.90;;;;;;5060447;28;20025;-76
2023/12/02 03:45:43;;;;;;;50.05;20.83;;;-0.70;99.90;;;;;;5076337;28;20479;-76
2023/12/02 03:48:09;;;;;;;59.65;22.30;;;-0.70;99.90;;;;;;5072503;28;20017;-76
2023/12/02 03:50:34;;;;;;;56.47;21.42;;;-0.80;99.90;;;;;;5092368;28;20025;-76
2023/12/02 03:53:00;;;;;;;55.05;22.20;;;-0.80;99.90;;;;;;5070113;28;20021;-77
2023/12/02 03:55:26;;;;;;;53.45;20.52;;;-0.80;99.90;;;;;;5082959;28;20063;-76
2023/12/02 03:57:51;;;;;;;55.78;21.83;;;-0.80;99.90;;;;;;5081847;28;20281;-76
2023/12/02 04:00:19;;;;;;;56.40;20.45;;;-0.80;99.90;;;;;;5076383;28;20062;-76
2023/12/02 04:02:45;;;;;;;53.65;20.75;;;-0.80;99.90;;;;;;5082622;28;20112;-76
2023/12/02 04:05:14;;;;;;;52.22;20.38;;;-0.90;99.90;;;;;;5070022;28;20075;-76
2023/12/02 04:07:40;;;;;;;57.97;21.20;;;-0.90;99.90;;;;;;5077849;28;20039;-76
2023/12/02 04:10:06;;;;;;;53.45;20.92;;;-0.90;99.90;;;;;;5082763;28;20021;-76
2023/12/02 04:12:34;;;;;;;57.03;20.98;;;-0.90;99.90;;;;;;5080762;28;20051;-76
2023/12/02 04:15:00;;;;;;;51.45;20.05;;;-0.90;99.90;;;;;;5069788;28;20021;-76
2023/12/02 04:17:25;;;;;;;55.85;20.70;;;-1.00;99.90;;;;;;5079815;28;20012;-76
2023/12/02 04:19:51;;;;;;;55.17;20.63;;;-1.00;99.90;;;;;;5073127;28;20436;-76
2023/12/02 04:22:17;;;;;;;52.72;19.65;;;-1.00;99.90;;;;;;5071255;28;20020;-76
2023/12/02 04:24:42;;;;;;;58.20;21.38;;;-1.00;99.90;;;;;;5074781;28;20114;-76
2023/12/02 04:27:08;;;;;;;55.92;21.08;;;-1.00;99.90;;;;;;5074431;28;20017;-76
2023/12/02 04:29:37;;;;;;;53.33;21.05;;;-1.10;99.90;;;;;;5086716;28;20083;-76
2023/12/02 04:32:03;;;;;;;55.55;21.02;;;-1.10;99.90;;;;;;5078878;28;20020;-76
2023/12/02 04:34:29;;;;;;;53.15;20.52;;;-1.10;99.90;;;;;;5083391;28;20416;-76
2023/12/02 04:36:55;;;;;;;52.83;20.83;;;-1.10;99.90;;;;;;5078189;28;20379;-76
2023/12/02 04:39:21;;;;;;;60.55;23.10;;;-1.10;99.90;;;;;;5085578;28;20026;-76
2023/12/02 04:41:46;;;;;;;57.83;21.15;;;-1.10;99.90;;;;;;5076122;28;20383;-76
2023/12/02 04:44:12;;;;;;;53.58;20.40;;;-1.10;99.90;;;;;;5068987;28;20096;-76
2023/12/02 04:46:38;;;;;;;51.30;20.27;;;-1.20;99.90;;;;;;5064562;28;20498;-76
2023/12/02 04:49:03;;;;;;;57.50;20.73;;;-1.20;99.90;;;;;;5073312;28;20417;-76
2023/12/02 04:51:29;;;;;;;53.30;21.08;;;-1.20;99.90;;;;;;5080058;28;20027;-76
2023/12/02 04:53:54;;;;;;;54.00;20.27;;;-1.20;99.90;;;;;;5080983;28;20056;-76
2023/12/02 04:56:20;;;;;;;59.55;21.75;;;-1.20;99.90;;;;;;5074186;28;20027;-76
2023/12/02 04:58:46;;;;;;;57.97;20.75;;;-1.20;99.90;;;;;;5069534;28;20075;-76
2023/12/02 05:01:12;;;;;;;59.55;21.55;;;-1.20;99.90;;;;;;5077068;28;20536;-76
2023/12/02 05:03:37;;;;;;;53.08;21.08;;;-1.20;99.90;;;;;;5070805;28;20016;-76
2023/12/02 05:06:04;;;;;;;56.15;21.35;;;-1.20;99.90;;;;;;5079485;28;20386;-76
2023/12/02 05:08:29;;;;;;;60.88;21.73;;;-1.20;99.90;;;;;;5074316;28;20029;-76
2023/12/02 05:10:55;;;;;;;62.78;21.55;;;-1.20;99.90;;;;;;5066117;28;20020;-76
2023/12/02 05:13:20;;;;;;;52.50;20.85;;;-1.30;99.90;;;;;;5067195;28;20041;-76
2023/12/02 05:15:46;;;;;;;52.65;20.88;;;-1.30;99.90;;;;;;5064885;28;20058;-76
2023/12/02 05:18:11;;;;;;;60.35;22.08;;;-1.30;99.90;;;;;;5056287;28;20017;-76
2023/12/02 05:20:37;;;;;;;55.67;20.77;;;-1.30;99.90;;;;;;5076606;28;20044;-76
2023/12/02 05:23:03;;;;;;;59.95;22.85;;;-1.30;99.90;;;;;;5065276;28;20033;-76
2023/12/02 05:25:28;;;;;;;59.50;22.65;;;-1.30;99.90;;;;;;5055839;28;20112;-76
2023/12/02 05:27:54;;;;;;;58.67;22.08;;;-1.30;99.90;;;;;;5073022;28;20017;-76
2023/12/02 05:30:20;;;;;;;60.88;22.83;;;-1.30;99.90;;;;;;5090856;28;20016;-76
2023/12/02 05:32:46;;;;;;;65.05;22.58;;;-1.30;99.90;;;;;;5072581;28;20077;-76
2023/12/02 05:35:11;;;;;;;57.78;22.65;;;-1.30;99.90;;;;;;5065045;28;20020;-76
2023/12/02 05:37:37;;;;;;;60.75;23.13;;;-1.30;99.90;;;;;;5057060;28;20025;-76
2023/12/02 05:40:04;;;;;;;64.90;23.60;;;-1.30;99.90;;;;;;5055163;28;20055;-76
2023/12/02 05:42:30;;;;;;;63.85;23.77;;;-1.30;99.90;;;;;;5052569;28;20021;-76
2023/12/02 05:44:55;;;;;;;69.65;24.05;;;-1.30;99.90;;;;;;5078290;28;20163;-76
2023/12/02 05:47:21;;;;;;;62.65;23.40;;;-1.30;99.90;;;;;;5071198;28;20456;-76
2023/12/02 05:49:46;;;;;;;64.45;23.77;;;-1.30;99.90;;;;;;5069128;28;20384;-76
2023/12/02 05:52:12;;;;;;;68.60;24.60;;;-1.30;99.90;;;;;;5076829;28;20120;-76
2023/12/02 05:54:38;;;;;;;64.03;23.45;;;-1.30;99.90;;;;;;5069860;28;20025;-76
2023/12/02 05:57:03;;;;;;;65.32;23.15;;;-1.30;99.90;;;;;;5071860;28;20055;-76
2023/12/02 05:59:29;;;;;;;64.88;23.67;;;-1.30;99.90;;;;;;5073484;28;20040;-76
2023/12/02 06:01:54;;;;;;;65.43;23.52;;;-1.30;99.90;;;;;;5073485;28;20063;-76
2023/12/02 06:04:20;;;;;;;59.90;22.83;;;-1.30;99.90;;;;;;5087180;28;20451;-76
2023/12/02 06:06:46;;;;;;;66.65;24.10;;;-1.40;99.90;;;;;;5078215;28;20557;-76
2023/12/02 06:09:12;;;;;;;59.17;22.00;;;-1.40;99.90;;;;;;5074775;28;20062;-76
2023/12/02 06:11:38;;;;;;;64.68;23.35;;;-1.40;99.90;;;;;;5065768;28;20105;-76
2023/12/02 06:14:05;;;;;;;62.45;23.05;;;-1.40;99.90;;;;;;5070017;28;20043;-76
2023/12/02 06:16:30;;;;;;;62.28;23.85;;;-1.40;99.90;;;;;;5065006;28;20044;-76
2023/12/02 06:18:56;;;;;;;65.38;24.17;;;-1.40;99.90;;;;;;5068753;28;20044;-76
2023/12/02 06:21:21;;;;;;;67.75;24.75;;;-1.40;99.90;;;;;;5071151;28;20017;-75
2023/12/02 06:23:47;;;;;;;72.95;24.83;;;-1.50;99.90;;;;;;5070547;28;20440;-76
2023/12/02 06:26:13;;;;;;;64.78;24.17;;;-1.50;99.90;;;;;;5062012;28;20028;-76
2023/12/02 06:28:39;;;;;;;69.00;23.92;;;-1.50;99.90;;;;;;5072040;28;20399;-76
2023/12/02 06:31:14;;;;;;;65.03;23.45;;;-1.50;99.90;;;;;;5078910;28;20021;-75
2023/12/02 06:33:40;;;;;;;69.07;24.20;;;-1.50;99.90;;;;;;5085417;28;20368;-75
2023/12/02 06:36:06;;;;;;;67.65;24.38;;;-1.50;99.90;;;;;;5091033;28;20070;-75
2023/12/02 06:38:31;;;;;;;66.90;24.00;;;-1.50;99.90;;;;;;5079629;28;20145;-75
2023/12/02 06:40:57;;;;;;;68.60;24.35;;;-1.50;99.90;;;;;;5069605;28;20040;-76
2023/12/02 06:43:23;;;;;;;69.53;24.98;;;-1.50;99.90;;;;;;5065569;28;20033;-76
2023/12/02 06:45:48;;;;;;;71.88;25.05;;;-1.50;99.90;;;;;;5066206;28;20031;-76
2023/12/02 06:48:14;;;;;;;69.85;25.17;;;-1.50;99.90;;;;;;5071940;28;20024;-75
2023/12/02 06:50:39;;;;;;;71.10;24.35;;;-1.50;99.90;;;;;;5086795;28;20024;-75
2023/12/02 06:53:06;;;;;;;69.43;25.05;;;-1.50;99.90;;;;;;5065463;28;20016;-77
2023/12/02 06:55:31;;;;;;;74.25;26.60;;;-1.50;99.90;;;;;;5070342;28;20024;-77
2023/12/02 06:58:00;;;;;;;73.68;26.48;;;-1.50;99.90;;;;;;5077953;28;20464;-76
2023/12/02 07:00:25;;;;;;;69.18;24.88;;;-1.50;99.90;;;;;;5062075;28;20047;-77
2023/12/02 07:02:51;;;;;;;76.70;26.88;;;-1.50;99.90;;;;;;5076151;28;20059;-76
2023/12/02 07:05:17;;;;;;;73.50;26.00;;;-1.50;99.90;;;;;;5078379;28;20470;-76
2023/12/02 07:07:43;;;;;;;77.60;27.05;;;-1.40;99.90;;;;;;5071930;28;20115;-76
2023/12/02 07:10:09;;;;;;;75.47;25.90;;;-1.40;99.90;;;;;;5063686;28;20028;-76
2023/12/02 07:12:36;;;;;;;75.25;26.05;;;-1.40;99.90;;;;;;5067711;28;20025;-76
2023/12/02 07:15:02;;;;;;;77.25;27.02;;;-1.40;99.90;;;;;;5059316;28;20108;-76
2023/12/02 07:17:28;;;;;;;79.80;29.00;;;-1.40;99.90;;;;;;5067655;28;20069;-76
2023/12/02 07:19:53;;;;;;;75.57;27.13;;;-1.40;99.90;;;;;;5063645;28;20032;-76
2023/12/02 07:22:19;;;;;;;69.13;25.13;;;-1.40;99.90;;;;;;5060932;28;20388;-76
2023/12/02 07:24:44;;;;;;;78.07;26.17;;;-1.40;99.90;;;;;;5056353;28;20032;-76
2023/12/02 07:27:10;;;;;;;76.55;26.63;;;-1.40;99.90;;;;;;5053079;28;20542;-76
2023/12/02 07:29:37;;;;;;;76.93;27.38;;;-1.40;99.90;;;;;;5064330;28;20025;-76
2023/12/02 07:32:03;;;;;;;80.15;26.80;;;-1.40;99.90;;;;;;5053648;28;20032;-76
2023/12/02 07:34:29;;;;;;;78.10;26.95;;;-1.40;99.90;;;;;;5061997;28;20024;-76
2023/12/02 07:36:54;;;;;;;83.18;28.05;;;-1.40;99.90;;;;;;5069341;28;20095;-76
2023/12/02 07:39:20;;;;;;;88.00;29.40;;;-1.40;99.90;;;;;;5070510;28;20021;-76
2023/12/02 07:41:45;;;;;;;83.10;27.67;;;-1.40;99.90;;;;;;5067468;28;20374;-76
2023/12/02 07:44:11;;;;;;;88.20;30.33;;;-1.30;99.90;;;;;;5064744;28;20142;-76
2023/12/02 07:46:37;;;;;;;84.40;30.27;;;-1.30;99.90;;;;;;5058691;28;20537;-75
2023/12/02 07:49:03;;;;;;;87.15;31.05;;;-1.30;99.90;;;;;;5067702;28;20036;-75
2023/12/02 07:51:28;;;;;;;86.80;30.38;;;-1.30;99.90;;;;;;5068095;28;20136;-75
2023/12/02 07:53:54;;;;;;;78.75;29.05;;;-1.30;99.90;;;;;;5063904;28;20021;-75
2023/12/02 07:56:19;;;;;;;87.88;28.50;;;-1.30;99.90;;;;;;5053705;28;20040;-75
2023/12/02 07:58:45;;;;;;;89.10;29.52;;;-1.20;99.90;;;;;;5053786;28;20034;-75
2023/12/02 08:01:11;;;;;;;77.15;28.58;;;-1.20;99.90;;;;;;5057451;28;20037;-75
2023/12/02 08:03:36;;;;;;;81.28;27.17;;;-1.20;99.90;;;;;;5055700;28;20051;-74
2023/12/02 08:06:02;;;;;;;80.28;28.30;;;-1.20;99.90;;;;;;5062865;28;20450;-76
2023/12/02 08:08:27;;;;;;;81.07;28.45;;;-1.20;99.90;;;;;;5061331;28;20017;-75
2023/12/02 08:10:55;;;;;;;79.03;27.15;;;-1.10;99.90;;;;;;5057302;28;20017;-75
2023/12/02 08:13:21;;;;;;;80.35;28.70;;;-1.10;99.90;;;;;;5052547;28;20049;-75
2023/12/02 08:15:46;;;;;;;78.07;28.23;;;-1.10;99.90;;;;;;5054024;28;20043;-75
2023/12/02 08:18:12;;;;;;;84.35;29.13;;;-1.10;99.90;;;;;;5050659;28;20120;-75
2023/12/02 08:20:37;;;;;;;88.47;29.02;;;-1.10;99.90;;;;;;5057644;28;20020;-75
2023/12/02 08:23:03;;;;;;;83.53;28.08;;;-1.10;99.90;;;;;;5076115;28;20553;-75
2023/12/02 08:25:28;;;;;;;81.55;29.20;;;-1.10;99.90;;;;;;5074220;28;20112;-75
2023/12/02 08:27:54;;;;;;;84.60;29.08;;;-1.10;99.90;;;;;;5059187;28;20544;-75
2023/12/02 08:30:20;;;;;;;84.63;29.05;;;-1.10;99.90;;;;;;5076470;28;20058;-75
2023/12/02 08:32:45;;;;;;;82.72;29.10;;;-1.00;99.90;;;;;;5069917;28;20021;-75
2023/12/02 08:35:11;;;;;;;83.47;30.40;;;-1.00;99.90;;;;;;5071002;28;20282;-75
2023/12/02 08:37:36;;;;;;;87.55;29.17;;;-0.90;99.90;;;;;;5065952;28;20430;-74
2023/12/02 08:40:02;;;;;;;80.00;28.45;;;-0.90;99.90;;;;;;5069997;28;20029;-75
2023/12/02 08:42:28;;;;;;;82.90;29.23;;;-0.90;99.90;;;;;;5076112;28;20029;-75
2023/12/02 08:44:53;;;;;;;82.68;28.85;;;-0.90;99.90;;;;;;5066907;28;20121;-75
2023/12/02 08:47:19;;;;;;;85.78;29.17;;;-0.80;99.90;;;;;;5067774;28;20025;-74
2023/12/02 08:49:45;;;;;;;82.25;29.15;;;-0.80;99.90;;;;;;5074773;28;20021;-75
2023/12/02 08:52:10;;;;;;;84.78;30.52;;;-0.80;99.90;;;;;;5078434;28;20430;-75
2023/12/02 08:54:36;;;;;;;84.53;29.63;;;-0.70;99.90;;;;;;5073919;28;20115;-75
2023/12/02 08:57:02;;;;;;;86.65;30.48;;;-0.60;99.90;;;;;;5073740;28;20082;-75
2023/12/02 08:59:28;;;;;;;82.97;29.75;;;-0.60;99.90;;;;;;5081471;28;20026;-75
2023/12/02 09:01:53;;;;;;;89.03;29.15;;;-0.50;99.90;;;;;;5070543;28;20095;-75
2023/12/02 09:04:19;;;;;;;83.40;28.95;;;-0.50;99.90;;;;;;5073826;28;20028;-75
2023/12/02 09:06:45;;;;;;;79.75;29.40;;;-0.40;99.90;;;;;;5060810;28;20052;-75
2023/12/02 09:09:10;;;;;;;84.45;30.25;;;-0.30;99.90;;;;;;5071521;28;20032;-75
2023/12/02 09:11:36;;;;;;;88.10;30.83;;;-0.20;99.90;;;;;;5076810;28;20462;-75
2023/12/02 09:14:02;;;;;;;95.40;31.95;;;-0.20;99.90;;;;;;5082552;28;20072;-76
2023/12/02 09:16:29;;;;;;;81.65;30.65;;;-0.20;99.90;;;;;;5061826;28;20420;-76
2023/12/02 09:18:55;;;;;;;81.35;29.73;;;-0.10;99.90;;;;;;5074006;28;20305;-76
2023/12/02 09:21:20;;;;;;;86.90;29.58;;;-0.10;99.90;;;;;;5060950;28;20017;-75
2023/12/02 09:23:50;;;;;;;77.47;29.88;;;-0.10;99.90;;;;;;5076265;28;20052;-76
2023/12/02 09:26:29;;;;;;;90.75;31.73;;;-0.10;99.90;;;;;;5076117;28;20032;-76
2023/12/02 09:28:55;;;;;;;84.38;30.65;;;0.00;99.90;;;;;;5069651;28;20116;-76
2023/12/02 09:31:21;;;;;;;80.97;30.42;;;0.00;99.90;;;;;;5079627;28;20024;-76
2023/12/02 09:34:02;;;;;;;84.20;30.63;;;0.00;99.90;;;;;;5076283;28;20032;-76
2023/12/02 09:36:35;;;;;;;79.35;30.52;;;0.10;99.90;;;;;;5074580;28;20066;-75
2023/12/02 09:39:11;;;;;;;78.78;28.33;;;0.10;99.90;;;;;;5058354;28;20032;-75
2023/12/02 09:41:42;;;;;;;78.80;29.95;;;0.10;99.90;;;;;;5083898;28;20020;-75
2023/12/02 09:44:22;;;;;;;81.78;29.65;;;0.20;99.90;;;;;;5088417;28;20561;-74
2023/12/02 09:47:20;;;;;;;86.38;30.45;;;0.20;99.90;;;;;;5085005;28;20055;-74
2023/12/02 09:50:11;;;;;;;78.75;29.42;;;0.20;99.90;;;;;;5091867;28;20029;-75
2023/12/02 09:52:49;;;;;;;83.32;31.77;;;0.20;99.90;;;;;;5066561;28;20021;-76
2023/12/02 09:55:29;;;;;;;83.03;31.88;;;0.20;99.90;;;;;;5076181;28;20020;-75
2023/12/02 09:58:08;;;;;;;79.45;31.08;;;0.30;99.90;;;;;;5065974;28;20029;-75
2023/12/02 10:01:05;;;;;;;75.05;30.38;;;0.30;99.90;;;;;;5061788;28;20036;-75
2023/12/02 10:03:51;;;;;;;84.03;30.80;;;0.30;99.90;;;;;;5063176;28;20028;-74
2023/12/02 10:06:31;;;;;;;76.97;29.83;;;0.30;99.90;;;;;;5062609;28;20037;-74
2023/12/02 10:09:22;;;;;;;84.60;30.85;;;0.30;99.90;;;;;;5058594;28;20100;-75
2023/12/02 10:12:13;;;;;;;85.85;31.52;;;0.40;99.90;;;;;;5059298;28;20096;-75
2023/12/02 10:14:41;;;;;;;81.43;32.55;;;0.50;99.90;;;;;;5076832;28;20044;-75
2023/12/02 10:17:10;;;;;;;87.55;32.55;;;0.60;99.90;;;;;;5075995;28;20099;-74
2023/12/02 10:19:51;;;;;;;87.28;33.00;;;0.70;99.90;;;;;;5070684;28;20021;-76
2023/12/02 10:22:19;;;;;;;91.30;32.40;;;0.80;99.90;;;;;;5079493;28;20086;-75
2023/12/02 10:25:04;;;;;;;93.65;34.17;;;0.90;99.90;;;;;;5070192;28;20063;-76
2023/12/02 10:27:30;;;;;;;;;;;1.00;99.90;;;;;;5063809;28;20021;-76
2023/12/02 10:29:58;;;;;;;83.88;31.10;;;1.00;99.90;;;;;;5066163;28;19908;-76
2023/12/02 10:32:37;;;;;;;94.22;34.53;;;1.20;99.90;;;;;;5071792;28;20099;-75
2023/12/02 10:35:20;;;;;;;89.63;34.80;;;1.20;99.90;;;;;;5086145;28;20032;-74
2023/12/02 10:37:55;;;;;;;84.22;33.13;;;1.30;99.90;;;;;;5075686;28;20039;-75
2023/12/02 10:40:25;;;;;;;88.32;34.22;;;1.40;99.90;;;;;;5089007;28;20050;-75
2023/12/02 10:42:57;;;;;;;89.50;34.13;;;1.50;99.90;;;;;;5064878;28;20028;-76
2023/12/02 10:45:25;;;;;;;86.47;35.22;;;1.60;99.90;;;;;;5065897;28;20032;-75
2023/12/02 10:47:52;;;;;;;84.57;34.03;;;1.70;99.90;;;;;;5065631;28;20548;-75
2023/12/02 10:50:19;;;;;;;85.85;34.67;;;1.80;99.90;;;;;;5065447;28;20041;-74
2023/12/02 10:53:04;;;;;;;82.43;33.35;;;1.90;99.90;;;;;;5056437;28;20064;-74
2023/12/02 10:55:31;;;;;;;;;;;2.10;99.90;;;;;;5058562;28;20086;-74
2023/12/02 10:57:58;;;;;;;79.50;31.30;;;2.10;99.90;;;;;;5069603;28;19958;-74
2023/12/02 11:00:26;;;;;;;82.22;33.15;;;2.30;99.90;;;;;;5053135;28;20651;-75
2023/12/02 11:03:03;;;;;;;76.40;30.02;;;2.30;99.90;;;;;;5081682;28;20332;-75
2023/12/02 11:05:36;;;;;;;78.57;31.20;;;2.40;99.90;;;;;;5069595;28;20075;-75
2023/12/02 11:08:10;;;;;;;73.43;30.92;;;2.50;99.90;;;;;;5061138;28;20024;-75
2023/12/02 11:10:43;;;;;;;76.43;32.03;;;2.60;99.90;;;;;;5065168;28;20384;-76
2023/12/02 11:13:17;;;;;;;74.10;28.95;;;2.60;99.90;;;;;;5058335;28;20021;-75
2023/12/02 11:16:07;;;;;;;74.82;30.92;;;2.70;99.90;;;;;;5074393;28;20074;-76
2023/12/02 11:19:11;;;;;;;64.15;29.23;;;2.70;99.90;;;;;;5072661;28;20024;-76
2023/12/02 11:21:57;;;;;;;69.72;29.92;;;2.70;99.90;;;;;;5068504;28;20028;-75
2023/12/02 11:24:43;;;;;;;71.72;29.75;;;2.70;99.90;;;;;;5058780;28;20020;-76
2023/12/02 11:27:55;;;;;;;67.82;29.00;;;2.70;99.90;;;;;;5072503;28;20029;-75
2023/12/02 11:30:50;;;;;;;64.80;27.63;;;2.80;99.90;;;;;;5067623;28;20037;-75
2023/12/02 11:33:25;;;;;;;67.05;27.60;;;2.80;99.90;;;;;;5062203;28;20037;-76
2023/12/02 11:36:17;;;;;;;72.38;29.23;;;2.80;99.90;;;;;;5061866;28;20036;-74
2023/12/02 11:39:13;;;;;;;74.70;29.13;;;2.90;99.90;;;;;;5068392;28;20050;-74
2023/12/02 11:41:42;;;;;;;69.82;28.35;;;2.90;99.90;;;;;;5072561;28;20387;-74
2023/12/02 11:44:28;;;;;;;72.95;29.13;;;2.90;99.90;;;;;;5069146;28;20055;-74
2023/12/02 11:47:22;;;;;;;66.13;27.08;;;2.80;99.90;;;;;;5066872;28;20033;-76
2023/12/02 11:50:18;;;;;;;72.07;28.63;;;2.70;99.90;;;;;;5059120;28;20029;-76
2023/12/02 11:53:17;;;;;;;75.10;28.75;;;2.60;99.90;;;;;;5063539;28;20399;-76
2023/12/02 11:56:04;;;;;;;71.15;26.65;;;2.50;99.90;;;;;;5059540;28;20111;-76
2023/12/02 11:58:42;;;;;;;86.63;27.25;;;2.30;99.90;;;;;;5063939;28;20462;-76
2023/12/02 12:01:36;;;;;;;95.72;29.20;;;2.20;99.90;;;;;;5080690;28;20494;-76
2023/12/02 12:04:23;;;;;;;96.63;27.30;;;2.10;99.90;;;;;;5064038;28;20469;-76
2023/12/02 12:07:15;;;;;;;82.60;28.35;;;2.00;99.90;;;;;;5080386;28;20032;-76
2023/12/02 12:10:13;;;;;;;87.75;29.48;;;2.00;99.90;;;;;;5076292;28;20032;-76
2023/12/02 12:12:42;;;;;;;78.88;28.13;;;1.90;99.90;;;;;;5067789;28;20036;-76
2023/12/02 12:15:08;;;;;;;81.15;28.92;;;1.90;99.90;;;;;;5062807;28;20093;-75
2023/12/02 12:17:34;;;;;;;81.82;29.02;;;1.90;99.90;;;;;;5074097;28;20016;-75
2023/12/02 12:20:16;;;;;;;90.68;29.23;;;2.00;99.90;;;;;;5080340;28;20520;-75
2023/12/02 12:22:42;;;;;;;85.82;29.38;;;2.00;99.90;;;;;;5059276;28;20501;-75
2023/12/02 12:25:08;;;;;;;85.45;28.98;;;2.00;99.90;;;;;;5067506;28;20129;-76
2023/12/02 12:27:33;;;;;;;82.72;30.42;;;2.00;99.90;;;;;;5065631;28;20044;-76
2023/12/02 12:29:59;;;;;;;82.00;30.73;;;2.00;99.90;;;;;;5070718;28;20027;-76
2023/12/02 12:32:25;;;;;;;94.28;31.58;;;2.00;99.90;;;;;;5076982;28;20031;-76
2023/12/02 12:34:53;;;;;;;88.93;31.02;;;2.00;99.90;;;;;;5073730;28;20024;-76
2023/12/02 12:37:19;;;;;;;84.03;32.17;;;2.10;99.90;;;;;;5069163;28;20542;-76
2023/12/02 12:39:45;;;;;;;97.85;32.70;;;2.10;99.90;;;;;;5084984;28;20099;-76